Time;durP1;ratioP1;P1;durP2;ratioP2;P2;SDS_P1;SDS_P2;PMS_P1;PMS_P2;Temp;Humidity;BMP_temperature;BMP_pressure;BME280_temperature;BME280_humidity;BME280_pressure;Samples;Min_cycle;Max_cycle;Signal;HPM_P1;HPM_P2
2022/10/01 00:01:20;;;;;;;10.23;8.80;;;13.60;99.90;;;;;;5073704;28;20205;-82
2022/10/01 00:03:49;;;;;;;10.13;8.13;;;13.60;99.90;;;;;;5073410;28;20213;-82
2022/10/01 00:06:19;;;;;;;7.80;7.10;;;13.60;99.90;;;;;;5073764;28;20217;-81
2022/10/01 00:08:50;;;;;;;10.00;8.95;;;13.60;99.90;;;;;;5073526;28;20220;-81
2022/10/01 00:11:20;;;;;;;8.50;7.68;;;13.60;99.90;;;;;;5073443;28;20205;-82
2022/10/01 00:13:50;;;;;;;9.68;8.80;;;13.60;99.90;;;;;;5073248;28;20212;-81
2022/10/01 00:16:21;;;;;;;9.30;8.40;;;13.50;99.90;;;;;;5073273;28;20229;-81
2022/10/01 00:18:52;;;;;;;9.05;8.15;;;13.60;99.90;;;;;;5073149;28;20228;-81
2022/10/01 00:21:22;;;;;;;9.60;8.70;;;13.50;99.90;;;;;;5073321;28;20292;-82
2022/10/01 00:23:56;;;;;;;10.85;9.93;;;13.50;99.90;;;;;;5073194;28;20216;-82
2022/10/01 00:26:27;;;;;;;11.43;10.13;;;13.50;99.90;;;;;;5073291;28;20229;-82
2022/10/01 00:28:57;;;;;;;11.00;8.88;;;13.50;99.90;;;;;;5072901;28;20213;-82
2022/10/01 00:31:26;;;;;;;8.93;8.13;;;13.50;99.90;;;;;;5073005;28;20209;-81
2022/10/01 00:33:56;;;;;;;10.38;9.48;;;13.50;99.90;;;;;;5073206;28;20201;-83
2022/10/01 00:36:26;;;;;;;11.82;10.65;;;13.50;99.90;;;;;;5073238;28;20236;-82
2022/10/01 00:38:59;;;;;;;9.57;8.68;;;13.50;99.90;;;;;;5072784;28;20220;-82
2022/10/01 00:41:28;;;;;;;12.27;11.10;;;13.50;99.90;;;;;;5072726;28;20205;-82
2022/10/01 00:43:58;;;;;;;12.48;10.55;;;13.50;99.90;;;;;;5072997;28;20212;-81
2022/10/01 00:46:34;;;;;;;11.27;10.27;;;13.50;99.90;;;;;;5073137;28;20236;-82
2022/10/01 00:49:07;;;;;;;13.40;12.10;;;13.50;99.90;;;;;;5072431;28;20211;-83
2022/10/01 00:51:41;;;;;;;10.43;9.55;;;13.50;99.90;;;;;;5072455;28;20217;-82
2022/10/01 00:54:14;;;;;;;11.63;10.48;;;13.50;99.90;;;;;;5072835;28;20215;-82
2022/10/01 00:56:44;;;;;;;12.10;10.93;;;13.50;99.90;;;;;;5073043;28;20236;-83
2022/10/01 00:59:14;;;;;;;11.25;10.30;;;13.50;99.90;;;;;;5072527;28;20216;-82
2022/10/01 01:01:43;;;;;;;12.50;10.82;;;13.40;99.90;;;;;;5072917;28;20212;-83
2022/10/01 01:04:16;;;;;;;11.65;10.63;;;13.40;99.90;;;;;;5072997;28;20244;-83
2022/10/01 01:06:46;;;;;;;17.88;11.07;;;13.40;99.90;;;;;;5072612;28;20248;-82
2022/10/01 01:09:18;;;;;;;13.43;12.13;;;13.40;99.90;;;;;;5072463;28;20216;-82
2022/10/01 01:11:56;;;;;;;12.65;11.48;;;13.40;99.90;;;;;;5072255;28;20213;-82
2022/10/01 01:14:30;;;;;;;15.63;12.20;;;13.40;99.90;;;;;;5072657;28;20212;-82
2022/10/01 01:17:01;;;;;;;13.35;11.63;;;13.50;99.90;;;;;;5072416;28;20228;-83
2022/10/01 01:19:48;;;;;;;12.23;11.05;;;13.50;99.90;;;;;;5072530;28;20201;-82
2022/10/01 01:22:21;;;;;;;13.05;11.85;;;13.50;99.90;;;;;;5072479;28;20205;-82
2022/10/01 01:24:56;;;;;;;11.35;10.35;;;13.50;99.90;;;;;;5072302;28;20240;-82
2022/10/01 01:27:33;;;;;;;12.55;11.45;;;13.50;99.90;;;;;;5072967;28;20205;-82
2022/10/01 01:30:07;;;;;;;13.75;12.50;;;13.60;99.90;;;;;;5072297;28;20217;-82
2022/10/01 01:32:45;;;;;;;13.77;12.55;;;13.50;99.90;;;;;;5072449;28;20296;-82
2022/10/01 01:35:19;;;;;;;15.13;13.63;;;13.50;99.90;;;;;;5072218;28;20224;-82
2022/10/01 01:37:53;;;;;;;13.57;12.48;;;13.50;99.90;;;;;;5072354;28;20212;-82
2022/10/01 01:40:21;;;;;;;13.70;12.40;;;13.50;99.90;;;;;;5072566;28;20204;-82
2022/10/01 01:42:52;;;;;;;14.88;12.40;;;13.60;99.90;;;;;;5071897;28;20406;-82
2022/10/01 01:45:28;;;;;;;14.57;13.27;;;13.60;99.90;;;;;;5071889;28;20326;-83
2022/10/01 01:47:59;;;;;;;13.07;11.98;;;13.50;99.90;;;;;;5072320;28;20234;-82
2022/10/01 01:50:34;;;;;;;13.43;12.07;;;13.60;99.90;;;;;;5071676;28;20316;-82
2022/10/01 01:53:02;;;;;;;12.45;11.27;;;13.60;99.90;;;;;;5072300;28;20220;-82
2022/10/01 01:55:31;;;;;;;14.45;13.15;;;13.60;99.90;;;;;;5072057;28;20320;-83
2022/10/01 01:58:00;;;;;;;13.52;12.15;;;13.60;99.90;;;;;;5072609;28;20201;-83
2022/10/01 02:00:30;;;;;;;14.43;12.90;;;13.60;99.90;;;;;;5071921;28;20208;-83
2022/10/01 02:02:59;;;;;;;13.77;12.68;;;13.60;99.90;;;;;;5072317;28;20204;-83
2022/10/01 02:05:35;;;;;;;14.95;13.43;;;13.50;99.90;;;;;;5072127;28;20289;-83
2022/10/01 02:08:34;;;;;;;14.18;13.00;;;13.60;99.90;;;;;;5072368;28;20205;-82
2022/10/01 02:11:21;;;;;;;13.75;12.18;;;13.50;99.90;;;;;;5049067;28;20240;-82
2022/10/01 02:14:02;;;;;;;14.40;13.10;;;13.50;99.90;;;;;;5072102;28;20218;-82
2022/10/01 02:16:38;;;;;;;14.15;12.85;;;13.50;99.90;;;;;;5071886;28;20221;-81
2022/10/01 02:19:14;;;;;;;13.80;12.45;;;13.50;99.90;;;;;;5071877;28;20219;-82
2022/10/01 02:21:53;;;;;;;14.20;12.75;;;13.50;99.90;;;;;;5071970;28;20207;-82
2022/10/01 02:24:27;;;;;;;15.52;13.93;;;13.50;99.90;;;;;;5072660;28;20211;-81
2022/10/01 02:26:57;;;;;;;13.55;11.55;;;13.50;99.90;;;;;;5075290;28;20232;-82
2022/10/01 02:29:25;;;;;;;14.88;12.60;;;13.50;99.90;;;;;;5075324;28;20211;-81
2022/10/01 02:31:57;;;;;;;14.80;13.38;;;13.50;99.90;;;;;;5075392;28;20228;-81
2022/10/01 02:34:29;;;;;;;12.38;11.32;;;13.40;99.90;;;;;;5075202;28;20204;-82
2022/10/01 02:37:01;;;;;;;13.70;12.43;;;13.40;99.90;;;;;;5075250;28;20227;-82
2022/10/01 02:39:30;;;;;;;12.70;11.57;;;13.50;99.90;;;;;;5074728;28;20219;-82
2022/10/01 02:42:00;;;;;;;13.05;11.80;;;13.40;99.90;;;;;;5075201;28;20224;-82
2022/10/01 02:44:36;;;;;;;13.25;11.90;;;13.50;99.90;;;;;;5075321;28;20209;-82
2022/10/01 02:47:13;;;;;;;11.38;10.35;;;13.50;99.90;;;;;;5075339;28;20239;-81
2022/10/01 02:49:41;;;;;;;9.73;8.88;;;13.40;99.90;;;;;;5074875;28;20219;-81
2022/10/01 02:52:17;;;;;;;10.93;9.82;;;13.40;99.90;;;;;;5074530;28;20236;-81
2022/10/01 02:54:50;;;;;;;9.77;8.93;;;13.40;99.90;;;;;;5075025;28;20212;-81
2022/10/01 02:57:22;;;;;;;9.85;8.95;;;13.40;99.90;;;;;;5075056;28;20197;-82
2022/10/01 02:59:50;;;;;;;12.52;9.02;;;13.40;99.90;;;;;;5074710;28;20209;-82
2022/10/01 03:02:21;;;;;;;10.00;8.98;;;13.50;99.90;;;;;;5074638;28;20211;-82
2022/10/01 03:04:49;;;;;;;11.38;9.18;;;13.50;99.90;;;;;;5074530;28;20244;-82
2022/10/01 03:07:18;;;;;;;10.38;9.38;;;13.50;99.90;;;;;;5074568;28;20205;-82
2022/10/01 03:09:46;;;;;;;10.18;9.18;;;13.50;99.90;;;;;;5074646;28;20209;-82
2022/10/01 03:12:15;;;;;;;11.00;9.10;;;13.50;99.90;;;;;;5074444;28;20221;-82
2022/10/01 03:14:44;;;;;;;8.73;8.02;;;13.40;99.90;;;;;;5074513;28;20201;-81
2022/10/01 03:17:13;;;;;;;8.73;8.02;;;13.40;99.90;;;;;;5074580;28;20211;-81
2022/10/01 03:19:43;;;;;;;8.18;7.57;;;13.50;99.90;;;;;;5074183;28;20205;-81
2022/10/01 03:22:25;;;;;;;12.32;8.40;;;13.40;99.90;;;;;;5074148;28;20203;-82
2022/10/01 03:25:00;;;;;;;8.77;7.95;;;13.50;99.90;;;;;;5074376;28;20346;-82
2022/10/01 03:27:28;;;;;;;8.52;7.82;;;13.40;99.90;;;;;;5074638;28;20204;-81
2022/10/01 03:29:58;;;;;;;9.63;8.55;;;13.50;99.90;;;;;;5074184;28;20201;-82
2022/10/01 03:32:26;;;;;;;9.30;8.50;;;13.50;99.90;;;;;;5074155;28;20228;-82
2022/10/01 03:34:56;;;;;;;9.20;8.38;;;13.50;99.90;;;;;;5073703;28;20209;-82
2022/10/01 03:37:27;;;;;;;9.68;8.75;;;13.50;99.90;;;;;;5073926;28;20201;-81
2022/10/01 03:39:57;;;;;;;9.00;8.10;;;13.50;99.90;;;;;;5074152;28;20279;-81
2022/10/01 03:42:26;;;;;;;10.85;8.35;;;13.40;99.90;;;;;;5073827;28;20212;-81
2022/10/01 03:44:54;;;;;;;9.35;8.13;;;13.40;99.90;;;;;;5073882;28;20209;-81
2022/10/01 03:47:23;;;;;;;11.02;8.55;;;13.40;99.90;;;;;;5073967;28;20205;-81
2022/10/01 03:49:51;;;;;;;8.68;7.97;;;13.40;99.90;;;;;;5073550;28;20259;-82
2022/10/01 03:52:21;;;;;;;9.50;8.60;;;13.40;99.90;;;;;;5073684;28;20236;-82
2022/10/01 03:54:49;;;;;;;8.93;8.23;;;13.40;99.90;;;;;;5073673;28;20212;-82
2022/10/01 03:57:17;;;;;;;7.88;7.18;;;13.40;99.90;;;;;;5073425;28;20212;-82
2022/10/01 03:59:45;;;;;;;8.43;7.80;;;13.40;99.90;;;;;;5073229;28;20209;-82
2022/10/01 04:02:13;;;;;;;10.13;8.23;;;13.40;99.90;;;;;;5073813;28;20205;-82
2022/10/01 04:04:42;;;;;;;8.32;7.70;;;13.40;99.90;;;;;;5073734;28;20261;-82
2022/10/01 04:07:10;;;;;;;9.88;8.63;;;13.40;99.90;;;;;;5073449;28;20216;-82
2022/10/01 04:09:40;;;;;;;8.93;8.18;;;13.30;99.90;;;;;;5073221;28;20209;-81
2022/10/01 04:12:08;;;;;;;11.50;8.75;;;13.30;99.90;;;;;;5073078;28;20224;-82
2022/10/01 04:14:36;;;;;;;10.35;8.80;;;13.30;99.90;;;;;;5073346;28;20216;-82
2022/10/01 04:17:05;;;;;;;9.02;8.13;;;13.30;99.90;;;;;;5073699;28;20213;-82
2022/10/01 04:19:33;;;;;;;9.27;8.38;;;13.30;99.90;;;;;;5072984;28;20209;-82
2022/10/01 04:22:01;;;;;;;9.15;8.32;;;13.30;99.90;;;;;;5073330;28;20204;-82
2022/10/01 04:24:29;;;;;;;7.47;6.85;;;13.30;99.90;;;;;;5073164;28;20206;-82
2022/10/01 04:26:59;;;;;;;12.15;8.85;;;13.30;99.90;;;;;;5072985;28;20225;-82
2022/10/01 04:29:27;;;;;;;24.38;7.40;;;13.30;99.90;;;;;;5073169;28;20215;-82
2022/10/01 04:31:57;;;;;;;7.75;7.05;;;13.30;99.90;;;;;;5073113;28;20231;-81
2022/10/01 04:34:51;;;;;;;8.60;7.80;;;13.30;99.90;;;;;;5073071;28;20213;-82
2022/10/01 04:37:13;;;;;;;8.98;7.88;;;13.30;99.90;;;;;;5073031;28;20213;-82
2022/10/01 04:39:41;;;;;;;10.32;7.13;;;13.30;99.90;;;;;;5072969;28;20221;-82
2022/10/01 04:42:12;;;;;;;7.68;6.88;;;13.30;99.90;;;;;;5073102;28;20201;-83
2022/10/01 04:44:40;;;;;;;7.72;7.07;;;13.30;99.90;;;;;;5072632;28;20212;-82
2022/10/01 04:47:09;;;;;;;7.63;6.93;;;13.40;99.90;;;;;;5072069;28;20213;-82
2022/10/01 04:49:37;;;;;;;7.88;7.18;;;13.40;99.90;;;;;;5072593;28;20209;-82
2022/10/01 04:52:06;;;;;;;11.52;8.68;;;13.40;99.90;;;;;;5072724;28;20228;-81
2022/10/01 04:54:34;;;;;;;8.13;7.43;;;13.40;99.90;;;;;;5073166;28;20217;-81
2022/10/01 04:57:02;;;;;;;8.23;7.53;;;13.30;99.90;;;;;;5072845;28;20230;-81
2022/10/01 04:59:32;;;;;;;10.48;9.52;;;13.30;99.90;;;;;;5072362;28;20213;-81
2022/10/01 05:02:00;;;;;;;8.15;7.45;;;13.30;99.90;;;;;;5072592;28;20205;-81
2022/10/01 05:04:29;;;;;;;9.60;8.82;;;13.30;99.90;;;;;;5073054;28;20220;-81
2022/10/01 05:06:57;;;;;;;8.60;7.90;;;13.20;99.90;;;;;;5072491;28;20229;-81
2022/10/01 05:09:25;;;;;;;10.32;9.27;;;13.20;99.90;;;;;;5072374;28;20204;-82
2022/10/01 05:11:53;;;;;;;11.23;10.05;;;13.20;99.90;;;;;;5072495;28;20229;-81
2022/10/01 05:14:22;;;;;;;9.55;8.35;;;13.20;99.90;;;;;;5072421;28;20209;-82
2022/10/01 05:16:51;;;;;;;9.10;8.20;;;13.10;99.90;;;;;;5072288;28;20237;-82
2022/10/01 05:19:20;;;;;;;9.00;7.90;;;13.10;99.90;;;;;;5072700;28;20205;-82
2022/10/01 05:21:50;;;;;;;8.60;7.90;;;13.10;99.90;;;;;;5072406;28;20213;-82
2022/10/01 05:24:19;;;;;;;9.60;8.70;;;13.10;99.90;;;;;;5072420;28;20204;-82
2022/10/01 05:26:47;;;;;;;9.95;9.05;;;13.10;99.90;;;;;;5072149;28;20236;-82
2022/10/01 05:29:17;;;;;;;8.10;7.03;;;13.10;99.90;;;;;;5072311;28;20216;-82
2022/10/01 05:31:46;;;;;;;10.00;8.05;;;13.10;99.90;;;;;;5072417;28;20216;-82
2022/10/01 05:34:16;;;;;;;9.85;7.50;;;13.10;99.90;;;;;;5072444;28;20209;-82
2022/10/01 05:36:44;;;;;;;8.55;7.75;;;13.00;99.90;;;;;;5072831;28;20225;-82
2022/10/01 05:39:13;;;;;;;8.35;7.43;;;13.10;99.90;;;;;;5072296;28;20209;-81
2022/10/01 05:41:41;;;;;;;9.02;8.15;;;13.10;99.90;;;;;;5072014;28;20300;-81
2022/10/01 05:44:09;;;;;;;9.00;8.07;;;13.10;99.90;;;;;;5072668;28;20211;-81
2022/10/01 05:46:38;;;;;;;8.75;7.93;;;13.20;99.90;;;;;;5072420;28;20232;-83
2022/10/01 05:49:07;;;;;;;9.50;8.40;;;13.20;99.90;;;;;;5071935;28;20212;-82
2022/10/01 05:51:37;;;;;;;8.82;7.88;;;13.20;99.90;;;;;;5071999;28;20205;-82
2022/10/01 05:54:05;;;;;;;7.32;6.70;;;13.20;99.90;;;;;;5071818;28;20237;-82
2022/10/01 05:56:33;;;;;;;22.75;8.23;;;13.10;99.90;;;;;;5072188;28;20228;-82
2022/10/01 05:59:02;;;;;;;7.97;7.28;;;13.10;99.90;;;;;;5073980;28;20213;-82
2022/10/01 06:01:31;;;;;;;7.90;7.25;;;13.10;99.90;;;;;;5076012;28;20204;-83
2022/10/01 06:03:59;;;;;;;9.55;8.32;;;13.10;99.90;;;;;;5075487;28;20197;-82
2022/10/01 06:06:28;;;;;;;8.82;8.02;;;13.10;99.90;;;;;;5075677;28;20229;-83
2022/10/01 06:08:59;;;;;;;9.05;8.13;;;13.10;99.90;;;;;;5075470;28;20204;-82
2022/10/01 06:11:27;;;;;;;9.20;7.28;;;13.10;99.90;;;;;;5076045;28;20205;-82
2022/10/01 06:13:56;;;;;;;8.07;7.38;;;13.10;99.90;;;;;;5075637;28;20225;-82
2022/10/01 06:16:24;;;;;;;8.32;7.63;;;13.10;99.90;;;;;;5075430;28;20233;-82
2022/10/01 06:18:56;;;;;;;11.15;8.30;;;13.00;99.90;;;;;;5075345;28;20205;-82
2022/10/01 06:21:25;;;;;;;7.93;7.20;;;13.10;99.90;;;;;;5075491;28;20239;-82
2022/10/01 06:23:54;;;;;;;8.02;7.32;;;13.10;99.90;;;;;;5075585;28;20207;-82
2022/10/01 06:26:24;;;;;;;7.07;6.47;;;13.10;99.90;;;;;;5075589;28;20225;-82
2022/10/01 06:28:53;;;;;;;8.77;7.97;;;13.10;99.90;;;;;;5075194;28;20205;-82
2022/10/01 06:31:21;;;;;;;8.85;7.93;;;13.10;99.90;;;;;;5075343;28;20216;-82
2022/10/01 06:33:50;;;;;;;7.68;7.00;;;13.20;99.90;;;;;;5075191;28;20233;-82
2022/10/01 06:36:18;;;;;;;10.65;7.43;;;13.20;99.90;;;;;;5074923;28;20225;-82
2022/10/01 06:38:48;;;;;;;8.70;7.13;;;13.20;99.90;;;;;;5075492;28;20213;-82
2022/10/01 06:41:17;;;;;;;7.30;6.63;;;13.20;99.90;;;;;;5074911;28;20280;-82
2022/10/01 06:43:49;;;;;;;7.30;6.60;;;13.20;99.90;;;;;;5075064;28;20202;-82
2022/10/01 06:46:17;;;;;;;8.07;7.05;;;13.30;99.90;;;;;;5075018;28;20229;-82
2022/10/01 06:48:45;;;;;;;7.13;6.53;;;13.30;99.90;;;;;;5074898;28;20207;-82
2022/10/01 06:51:14;;;;;;;7.90;7.25;;;13.30;99.90;;;;;;5074691;28;20208;-82
2022/10/01 06:53:42;;;;;;;8.35;7.55;;;13.40;99.90;;;;;;5075000;28;20225;-82
2022/10/01 06:56:10;;;;;;;6.85;6.25;;;13.50;99.90;;;;;;5075031;28;20225;-83
2022/10/01 06:58:38;;;;;;;6.57;6.07;;;13.50;99.90;;;;;;5074557;28;20216;-82
2022/10/01 07:01:09;;;;;;;7.90;7.10;;;13.50;99.90;;;;;;5075260;28;20209;-81
2022/10/01 07:03:38;;;;;;;7.95;6.95;;;13.60;99.90;;;;;;5075117;28;20205;-82
2022/10/01 07:06:09;;;;;;;6.90;5.97;;;13.70;99.90;;;;;;5074703;28;20240;-83
2022/10/01 07:08:38;;;;;;;6.55;5.93;;;13.80;99.90;;;;;;5074765;28;20215;-81
2022/10/01 07:11:06;;;;;;;5.60;5.20;;;13.80;99.90;;;;;;5073796;28;20215;-82
2022/10/01 07:13:34;;;;;;;6.65;5.93;;;13.90;99.90;;;;;;5074394;28;20221;-80
2022/10/01 07:16:03;;;;;;;6.53;5.93;;;14.00;99.90;;;;;;5074501;28;20232;-81
2022/10/01 07:18:33;;;;;;;6.35;5.75;;;14.10;99.90;;;;;;5074005;28;20219;-82
2022/10/01 07:21:02;;;;;;;6.32;5.70;;;14.20;99.90;;;;;;5074619;28;20216;-81
2022/10/01 07:23:30;;;;;;;7.20;6.50;;;14.20;99.90;;;;;;5074548;28;20205;-81
2022/10/01 07:25:59;;;;;;;6.13;5.45;;;14.20;99.90;;;;;;5074171;28;20229;-81
2022/10/01 07:28:27;;;;;;;5.28;4.85;;;14.20;99.90;;;;;;5074331;28;20212;-81
2022/10/01 07:31:00;;;;;;;6.32;5.72;;;14.20;99.90;;;;;;5074146;28;20212;-82
2022/10/01 07:33:29;;;;;;;6.13;5.55;;;14.20;99.90;;;;;;5074190;28;20229;-82
2022/10/01 07:36:02;;;;;;;5.75;5.25;;;14.20;99.90;;;;;;5074281;28;20232;-82
2022/10/01 07:38:32;;;;;;;6.30;5.72;;;14.20;99.90;;;;;;5073945;28;20213;-81
2022/10/01 07:41:01;;;;;;;5.65;4.82;;;14.20;99.90;;;;;;5073929;28;20205;-81
2022/10/01 07:43:31;;;;;;;6.20;5.70;;;14.20;99.90;;;;;;5074374;28;20209;-81
2022/10/01 07:46:06;;;;;;;5.65;5.15;;;14.30;99.90;;;;;;5074052;28;20225;-81
2022/10/01 07:48:34;;;;;;;5.30;4.90;;;14.30;99.90;;;;;;5073999;28;20213;-82
2022/10/01 07:51:04;;;;;;;9.48;5.65;;;14.30;99.90;;;;;;5073562;28;20201;-81
2022/10/01 07:53:32;;;;;;;4.25;3.95;;;14.40;99.90;;;;;;5073455;28;20220;-82
2022/10/01 07:59:13;;;;;;;5.30;4.80;;;14.70;99.90;;;;;;5070156;28;20208;-81
2022/10/01 08:01:50;;;;;;;5.55;4.70;;;14.90;99.90;;;;;;5073525;28;20204;-81
2022/10/01 08:07:20;;;;;;;5.85;4.85;;;15.20;99.90;;;;;;5073589;28;20209;-81
2022/10/01 08:09:48;;;;;;;5.95;4.57;;;15.30;99.90;;;;;;5073485;28;20213;-81
2022/10/01 08:12:18;;;;;;;5.30;4.80;;;15.40;99.90;;;;;;5073226;28;20224;-82
2022/10/01 08:14:47;;;;;;;4.03;3.72;;;15.50;99.90;;;;;;5080668;23;20233;-81
2022/10/01 08:21:03;;;;;;;4.20;3.67;;;15.60;99.90;;;;;;5040678;28;20212;-81
2022/10/01 08:23:34;;;;;;;4.53;4.13;;;15.60;99.90;;;;;;5073320;28;20211;-81
2022/10/01 08:26:05;;;;;;;4.53;3.95;;;15.60;99.90;;;;;;5073470;28;20236;-81
2022/10/01 08:28:34;;;;;;;3.85;3.55;;;15.60;99.90;;;;;;5073042;28;20213;-81
2022/10/01 08:31:15;;;;;;;4.72;4.22;;;15.50;99.90;;;;;;5069350;28;20220;-81
2022/10/01 08:33:44;;;;;;;4.18;3.83;;;15.40;99.90;;;;;;5069923;28;20268;-82
2022/10/01 08:36:13;;;;;;;3.85;3.55;;;15.50;99.90;;;;;;5069820;28;20229;-82
2022/10/01 08:39:22;;;;;;;4.43;4.03;;;15.50;99.90;;;;;;5071289;28;20217;-81
2022/10/01 08:42:01;;;;;;;5.57;4.38;;;15.50;99.90;;;;;;5069668;28;20212;-81
2022/10/01 08:44:49;;;;;;;4.28;3.90;;;15.50;99.90;;;;;;5070347;28;20205;-82
2022/10/01 08:48:11;;;;;;;4.03;3.72;;;15.40;99.90;;;;;;5070854;28;20216;-81
2022/10/01 08:50:47;;;;;;;3.92;3.53;;;15.40;99.90;;;;;;5067449;28;20227;-82
2022/10/01 08:53:26;;;;;;;8.57;4.82;;;15.40;99.90;;;;;;5070347;28;20219;-81
2022/10/01 08:55:57;;;;;;;5.13;4.32;;;15.40;99.90;;;;;;5070214;28;20229;-81
2022/10/01 08:58:31;;;;;;;3.85;3.55;;;15.40;99.90;;;;;;5070002;28;20209;-81
2022/10/01 09:00:59;;;;;;;4.28;3.88;;;15.40;99.90;;;;;;5070718;28;20216;-81
2022/10/01 09:03:32;;;;;;;7.50;3.92;;;15.50;99.90;;;;;;5070935;28;20212;-81
2022/10/01 09:06:17;;;;;;;4.78;3.60;;;15.60;99.90;;;;;;5076277;22;20323;-81
2022/10/01 09:09:03;;;;;;;3.88;3.58;;;15.60;99.90;;;;;;5069735;28;20209;-81
2022/10/01 09:11:53;;;;;;;4.28;3.90;;;15.60;99.90;;;;;;5069673;28;20209;-81
2022/10/01 09:14:44;;;;;;;4.68;4.20;;;15.60;99.90;;;;;;5066171;28;20228;-80
2022/10/01 09:17:28;;;;;;;4.10;3.70;;;15.70;99.90;;;;;;5049449;28;20255;-80
2022/10/01 09:20:03;;;;;;;3.95;3.65;;;15.70;99.90;;;;;;5049924;28;20206;-81
2022/10/01 09:22:41;;;;;;;4.47;3.28;;;15.70;99.90;;;;;;5049663;28;20213;-80
2022/10/01 09:25:17;;;;;;;4.47;4.07;;;15.80;99.90;;;;;;5049191;28;20217;-81
2022/10/01 09:27:47;;;;;;;3.42;3.13;;;15.70;99.90;;;;;;5050397;28;20209;-81
2022/10/01 09:30:20;;;;;;;7.07;4.55;;;15.70;99.90;;;;;;5049348;28;20217;-80
2022/10/01 09:32:58;;;;;;;5.15;3.78;;;15.80;99.90;;;;;;5049830;28;20224;-80
2022/10/01 09:35:37;;;;;;;5.38;4.88;;;15.80;99.90;;;;;;5053536;28;20244;-81
2022/10/01 09:38:16;;;;;;;4.88;4.47;;;15.70;99.90;;;;;;5054077;28;20221;-81
2022/10/01 09:40:51;;;;;;;6.45;5.53;;;15.70;99.90;;;;;;5054051;28;20209;-81
2022/10/01 09:43:23;;;;;;;6.57;5.13;;;15.80;99.90;;;;;;5053879;28;20212;-81
2022/10/01 09:45:51;;;;;;;3.15;2.95;;;15.80;99.90;;;;;;5053712;28;20225;-81
2022/10/01 09:48:28;;;;;;;3.80;3.38;;;15.90;99.90;;;;;;5053366;28;20217;-81
2022/10/01 09:51:04;;;;;;;3.72;3.15;;;15.90;99.90;;;;;;5053563;28;20221;-82
2022/10/01 09:53:36;;;;;;;3.58;3.28;;;16.00;99.90;;;;;;5053530;28;20213;-81
2022/10/01 09:56:17;;;;;;;3.15;2.90;;;16.00;99.90;;;;;;5055042;28;20233;-80
2022/10/01 09:58:53;;;;;;;3.28;2.97;;;15.90;99.90;;;;;;5055911;28;20213;-80
2022/10/01 10:01:30;;;;;;;3.90;3.60;;;15.90;99.90;;;;;;5056159;28;20228;-80
2022/10/01 10:04:03;;;;;;;5.07;3.22;;;15.90;99.90;;;;;;5056146;28;20214;-81
2022/10/01 10:06:36;;;;;;;18.13;2.83;;;15.90;99.90;;;;;;5055880;28;20248;-81
2022/10/01 10:09:16;;;;;;;3.53;2.88;;;16.00;99.90;;;;;;5055543;28;20336;-82
2022/10/01 10:11:45;;;;;;;3.42;3.13;;;16.00;99.90;;;;;;5055802;28;20215;-81
2022/10/01 10:14:23;;;;;;;4.43;3.75;;;16.10;99.90;;;;;;5055602;28;20213;-81
2022/10/01 10:17:03;;;;;;;3.50;3.20;;;16.10;99.90;;;;;;5055139;28;20228;-80
2022/10/01 10:19:36;;;;;;;2.95;2.65;;;16.20;99.90;;;;;;5056066;28;20198;-80
2022/10/01 10:22:22;;;;;;;2.80;2.55;;;16.30;99.90;;;;;;5055448;28;20261;-81
2022/10/01 10:24:52;;;;;;;3.78;2.88;;;16.30;99.90;;;;;;5055598;28;20284;-81
2022/10/01 10:27:25;;;;;;;3.10;2.85;;;16.40;99.90;;;;;;5055505;28;20202;-81
2022/10/01 10:30:18;;;;;;;3.83;3.35;;;16.50;99.90;;;;;;5055513;28;20220;-81
2022/10/01 10:32:52;;;;;;;3.65;2.50;;;16.50;99.90;;;;;;5055009;28;20244;-81
2022/10/01 10:35:25;;;;;;;3.25;3.05;;;16.60;99.90;;;;;;5054848;28;20307;-81
2022/10/01 10:37:57;;;;;;;2.20;2.08;;;16.80;99.90;;;;;;5055386;28;20213;-81
2022/10/01 10:40:32;;;;;;;2.05;1.95;;;16.80;99.90;;;;;;5055046;28;20220;-81
2022/10/01 10:43:03;;;;;;;2.75;2.10;;;16.90;99.90;;;;;;5054656;28;20228;-81
2022/10/01 10:45:38;;;;;;;3.80;3.50;;;17.10;99.90;;;;;;5054329;28;20251;-81
2022/10/01 10:48:13;;;;;;;2.30;2.20;;;17.30;99.90;;;;;;5055223;28;20292;-81
2022/10/01 10:50:49;;;;;;;5.10;4.25;;;17.40;99.90;;;;;;5055190;28;20213;-81
2022/10/01 10:53:24;;;;;;;2.80;2.60;;;17.60;99.90;;;;;;5055472;28;20205;-82
2022/10/01 10:56:01;;;;;;;3.03;2.60;;;17.80;99.90;;;;;;5055122;28;20261;-81
2022/10/01 10:58:41;;;;;;;2.20;2.10;;;17.90;99.90;;;;;;5055006;28;20280;-82
2022/10/01 11:01:18;;;;;;;2.53;2.30;;;18.00;99.90;;;;;;5055051;28;20205;-81
2022/10/01 11:03:52;;;;;;;2.40;2.20;;;17.90;99.90;;;;;;5055500;28;20233;-81
2022/10/01 11:06:20;;;;;;;2.38;2.25;;;17.90;99.90;;;;;;5055167;28;20234;-81
2022/10/01 11:08:58;;;;;;;2.10;1.95;;;17.80;99.90;;;;;;5055619;28;20237;-81
2022/10/01 11:11:49;;;;;;;2.78;2.40;;;17.60;99.90;;;;;;5055565;28;20213;-81
2022/10/01 11:14:50;;;;;;;2.20;2.10;;;17.60;99.90;;;;;;5055135;28;20214;-82
2022/10/01 11:17:38;;;;;;;2.40;2.20;;;17.70;99.90;;;;;;5047697;28;20213;-82
2022/10/01 11:20:33;;;;;;;1.77;1.67;;;17.90;99.90;;;;;;5055373;28;20220;-82
2022/10/01 11:23:17;;;;;;;4.65;4.05;;;18.30;99.90;;;;;;5055702;28;20205;-82
2022/10/01 11:25:53;;;;;;;3.97;3.67;;;18.80;99.90;;;;;;5055182;28;20296;-81
2022/10/01 11:28:33;;;;;;;4.40;4.05;;;19.20;99.90;;;;;;5055348;28;20237;-82
2022/10/01 11:31:45;;;;;;;4.30;3.90;;;19.50;99.90;;;;;;5055084;28;20229;-82
2022/10/01 11:40:49;;;;;;;4.38;3.85;;;19.90;99.90;;;;;;5053122;28;20252;-82
2022/10/01 11:43:24;;;;;;;3.53;3.22;;;19.80;99.90;;;;;;5050878;28;20248;-82
2022/10/01 11:46:14;;;;;;;3.78;3.50;;;19.90;99.90;;;;;;5054781;28;20245;-82
2022/10/01 11:48:50;;;;;;;4.18;3.60;;;20.00;99.90;;;;;;5053717;28;20202;-82
2022/10/01 11:51:28;;;;;;;4.22;3.88;;;20.00;99.90;;;;;;5053772;28;20224;-82
2022/10/01 11:54:04;;;;;;;4.50;4.10;;;19.90;99.90;;;;;;5054222;28;20209;-82
2022/10/01 11:59:49;;;;;;;3.63;3.42;;;19.50;99.90;;;;;;5053499;28;20273;-82
2022/10/01 12:02:38;;;;;;;3.92;3.63;;;19.30;99.90;;;;;;5053411;28;20201;-82
2022/10/01 12:05:50;;;;;;;3.97;3.70;;;19.20;99.90;;;;;;5053877;28;20265;-82
2022/10/01 12:08:24;;;;;;;3.60;3.35;;;18.90;99.90;;;;;;4972551;28;20212;-82
2022/10/01 12:11:33;;;;;;;5.30;4.40;;;18.80;99.90;;;;;;4972880;28;20212;-82
2022/10/01 12:14:15;;;;;;;3.92;3.60;;;18.70;99.90;;;;;;4976900;28;20216;-82
2022/10/01 12:16:51;;;;;;;7.70;4.00;;;18.70;99.90;;;;;;5053339;28;20231;-82
2022/10/01 12:19:24;;;;;;;3.65;2.83;;;18.70;99.90;;;;;;5053497;28;20216;-81
2022/10/01 12:21:58;;;;;;;3.35;3.15;;;18.70;99.90;;;;;;5053345;28;20239;-81
2022/10/01 12:24:30;;;;;;;3.85;3.55;;;18.60;99.90;;;;;;5053628;28;20213;-81
2022/10/01 12:27:18;;;;;;;3.95;3.08;;;18.60;99.90;;;;;;5053350;28;20222;-81
2022/10/01 12:29:56;;;;;;;3.13;2.92;;;18.70;99.90;;;;;;5053096;28;20236;-82
2022/10/01 12:32:38;;;;;;;3.38;3.10;;;18.70;99.90;;;;;;5053534;28;20220;-82
2022/10/01 12:35:20;;;;;;;3.50;3.20;;;18.70;99.90;;;;;;5052935;28;20291;-81
2022/10/01 12:38:10;;;;;;;3.05;2.75;;;18.70;99.90;;;;;;5052607;28;20190;-81
2022/10/01 12:40:46;;;;;;;3.97;2.42;;;18.70;99.90;;;;;;5052979;28;20205;-81
2022/10/01 12:47:11;;;;;;;2.22;1.92;;;18.70;99.90;;;;;;5051395;28;20236;-81
2022/10/01 12:49:49;;;;;;;1.60;1.50;;;18.60;99.90;;;;;;5052542;28;20209;-82
2022/10/01 12:52:33;;;;;;;1.70;1.60;;;18.50;99.90;;;;;;5052806;28;20205;-82
2022/10/01 12:55:29;;;;;;;1.70;1.60;;;18.40;99.90;;;;;;5052390;28;20312;-81
2022/10/01 12:58:11;;;;;;;1.90;1.73;;;18.40;99.90;;;;;;5052881;28;20209;-82
2022/10/01 13:00:50;;;;;;;2.03;1.83;;;18.40;99.90;;;;;;5052866;28;20228;-81
2022/10/01 13:03:45;;;;;;;3.30;3.05;;;18.20;99.90;;;;;;5052632;28;20210;-81
2022/10/01 13:06:28;;;;;;;2.42;2.20;;;18.30;99.90;;;;;;5052675;28;20236;-82
2022/10/01 13:09:05;;;;;;;2.03;1.80;;;18.10;99.90;;;;;;5051763;28;20217;-82
2022/10/01 13:11:55;;;;;;;1.27;1.20;;;18.10;99.90;;;;;;5052690;28;20209;-82
2022/10/01 13:14:24;;;;;;;1.58;1.52;;;18.20;99.90;;;;;;5052945;28;20213;-82
2022/10/01 13:16:58;;;;;;;1.50;1.40;;;18.20;99.90;;;;;;5052160;28;20229;-82
2022/10/01 13:19:34;;;;;;;2.97;1.92;;;18.20;99.90;;;;;;5052446;28;20221;-82
2022/10/01 13:22:13;;;;;;;2.42;2.22;;;18.20;99.90;;;;;;5052442;28;20213;-81
2022/10/01 13:24:48;;;;;;;3.10;2.50;;;18.10;99.90;;;;;;5052176;28;20209;-81
2022/10/01 13:27:21;;;;;;;1.73;1.63;;;18.00;99.90;;;;;;5052261;28;20206;-81
2022/10/01 13:29:57;;;;;;;1.83;1.73;;;18.00;99.90;;;;;;5052319;28;20220;-82
2022/10/01 13:32:32;;;;;;;3.40;1.35;;;18.00;99.90;;;;;;5052658;28;20212;-82
2022/10/01 13:35:20;;;;;;;1.48;1.25;;;17.90;99.90;;;;;;5052228;28;20308;-82
2022/10/01 13:37:48;;;;;;;2.50;1.58;;;17.80;99.90;;;;;;5052330;28;20229;-81
2022/10/01 13:40:24;;;;;;;3.85;1.88;;;17.90;99.90;;;;;;5051919;28;20225;-82